AirNav   BOSE A20 Aviation Headset
 
 545 users online  

37K Falconhead Airport
Burneyville, Oklahoma, USA

GOING TO BURNEYVILLE?


FAA INFORMATION EFFECTIVE 26 APRIL 2018

Location

FAA Identifier: 37K
Lat/Long: 33-55-33.5000N / 097-17-46.9000W
33-55.558333N / 097-17.781667W
33.9259722 / -97.2963611
(estimated)
Elevation: 690 ft. / 210 m (estimated)
Variation: 07E (1985)
From city: 2 miles NW of BURNEYVILLE, OK
Time zone: UTC -5 (UTC -6 during Standard Time)
Zip code: 73430

Airport Operations

Airport use: Open to the public
Control tower: no
ARTCC: FORT WORTH CENTER
FSS: MC ALESTER FLIGHT SERVICE STATION
NOTAMs facility: MLC (NOTAM-D service available)
Attendance: UNATNDD
Wind indicator: yes
Segmented circle: no

Airport Communications

CTAF: 122.9
WX AWOS-3 at 1F0 (16 nm NE): 118.15 (580-226-1536)
WX AWOS-3 at GLE (17 nm S): 118.375 (940-612-3549)

Nearby radio navigation aids

VOR radial/distance  VOR name  Freq  Var
ADMr194/18.3ARDMORE VORTAC116.7006E
UKWr042/35.1BOWIE VORTAC112.4006E

 
NDB name  Hdg/Dist  Freq  Var  ID
GRINDSTONE MOUNTAIN044/30.635607EGMZ --. -- --..
DENISON275/31.834106EDNI -.. -. ..

Airport Services

Parking: tiedowns
Airframe service: NONE
Powerplant service: NONE
Bottled oxygen: NONE
Bulk oxygen: NONE

Runway Information

Runway 18/36

Dimensions: 4400 x 75 ft. / 1341 x 23 m
Surface: asphalt/L
ASPH HAS WEAK SPOTS IN BASE; SEVERE RAVELING & POTHOLES; SEVERE GRASS ENCROACHMENT.
RUNWAY 18  RUNWAY 36
Latitude: 33-55.915833N33-55.199833N
Longitude: 097-17.711000W097-17.850833W
Elevation: 690.0 ft.690.0 ft.
Traffic pattern: leftleft
Runway heading: 182 magnetic, 189 true002 magnetic, 009 true
Obstructions: 25 ft. trees, 250 ft. from runway, 2:1 slope to clear
-20 FT TERRAIN DROP INTO RIVER 120 FT FROM RWY END; +30-40 FT TREES 100 FT FM RWY END L & R OF CENTERLINE.
30 ft. trees, 250 ft. from runway, 100 ft. left of centerline, 1:1 slope to clear
+40 FT TREES 100 FT FM RWY END & 95 FT L OF RWY CENTERLINE.

Airport Ownership and Management from official FAA records

Ownership: Privately-owned
Owner: FALCONHEAD AIRPORT & AV. SVCS. LLC
180 GOLF CLUB DRIVE
BURNEYVILLE, OK 73430
Phone 580-276-1379
Manager: DANNY STANTON
300 GOLF CLUB DRIVE
BURNEYVILLE, OK 73430
Phone 580-276-1379

Airport Operational Statistics

Aircraft based on the field: 6
Single engine airplanes: 5
Multi engine airplanes: 1
    
Aircraft operations: avg 38/month *
65% local general aviation
33% transient general aviation
2% military
* for 12-month period ending 21 December 2016

Instrument Procedures

There are no published instrument procedures at 37K.

Some nearby airports with instrument procedures:

1F0 - Ardmore Downtown Executive Airport (16 nm NE)
KGLE - Gainesville Municipal Airport (17 nm S)
KADM - Ardmore Municipal Airport (26 nm NE)
1F4 - Madill Municipal Airport (27 nm NE)
0F2 - Bowie Municipal Airport (31 nm SW)
 
Loc | Ops | Rwys | IFR | FBO | Links
Com | Nav | Svcs | Stats | Notes

AirNav Hotels Sweepstakes
 
Area around 37K (Falconhead Airport)
 
Road maps at: MapQuest Bing Google
 
Aerial photo
WARNING: Photo may not be current or correct
Aerial photo of 37K (Falconhead Airport)
Photo by Mike Mee
Taken in May 2017
looking south.

Do you have a better or more recent aerial photo of Falconhead Airport that you would like to share? If so, please send us your photo.

 
Sectional chart

 
Airport distance calculator
Flying to Falconhead Airport? Find the distance to fly.

From to 37K

Sunrise and sunset
Times for 21-May-2018
 Local
(UTC-5)
 Zulu
(UTC)
Morning civil twilight05:5710:57
Sunrise06:2511:25
Sunset20:2701:27
Evening civil twilight20:5501:55

Current date and time
Zulu (UTC)  21-May-2018 11:05:13
Local (UTC-5)  21-May-2018 06:05:13
 
METAR
K1F0 
16nm NE 
211035Z AUTO 03004KT 10SM CLR 17/16 A3003 RMK AO2 TSNO
KGLE 
17nm S 
211035Z AUTO 03003KT 5SM BR CLR 18/17 A3004 RMK AO2 T01750169
KADM 
26nm NE 
211035Z AUTO 00000KT 7SM SCT029 17/17 A3003 RMK AO2 T01740167
K0F2 
31nm SW 
211035Z AUTO 01005KT 7SM CLR 18/17 A3003 RMK AO2 T01770172
TAF
NOTAMs
Click for the latest NOTAMs
NOTAMs are issued by the DoD/FAA and will open in a separate window not controlled by AirNav.

 

 
 

Would you like to see your business listed on this page?

 If your business provides an interesting product or service to pilots, flight crews, aircraft, or users of the Falconhead Airport, you should consider listing it here.  To start the listing process, click on the button below
 
Add a business
 

Other Pages about Falconhead Airport

www.falconheadgolf.com/FalconheadAirportInformation.htm
 
Update a link
 
Copyright © AirNav, LLC. All rights reserved. Privacy Policy  Contact